Time;durP1;ratioP1;P1;durP2;ratioP2;P2;SDS_P1;SDS_P2;PMS_P1;PMS_P2;Temp;Humidity;BMP_temperature;BMP_pressure;BME280_temperature;BME280_humidity;BME280_pressure;Samples;Min_cycle;Max_cycle;Signal;HPM_P1;HPM_P2
2021/07/08 00:02:54;;;;;;;3.85;2.35;;;;;;;20.58;61.36;100427.94;10445595;28;20048;-61
2021/07/08 00:07:58;;;;;;;6.97;3.35;;;;;;;20.54;61.60;100440.19;10442758;28;20654;-60
2021/07/08 00:13:00;;;;;;;6.43;4.18;;;;;;;20.47;61.89;100459.81;10447119;28;20045;-60
2021/07/08 00:18:07;;;;;;;7.47;3.30;;;;;;;20.39;62.26;100462.59;10443514;28;20124;-61
2021/07/08 00:23:08;;;;;;;3.20;2.90;;;;;;;20.40;62.34;100458.91;10439036;28;20052;-60
2021/07/08 00:28:14;;;;;;;7.95;3.88;;;;;;;20.37;62.71;100442.19;10441643;28;20067;-60
2021/07/08 00:33:16;;;;;;;3.40;2.63;;;;;;;20.40;63.06;100458.91;10439415;28;20405;-59
2021/07/08 00:38:17;;;;;;;4.30;3.05;;;;;;;20.39;63.20;100446.38;10437759;28;20060;-60
2021/07/08 00:43:19;;;;;;;4.70;2.28;;;;;;;20.37;62.96;100437.63;10446161;28;20052;-61
2021/07/08 00:48:21;;;;;;;5.80;2.60;;;;;;;20.33;63.01;100455.22;10438275;28;20246;-61
2021/07/08 00:53:22;;;;;;;3.15;2.13;;;;;;;20.28;63.68;100452.22;10433953;28;20077;-60
2021/07/08 00:58:25;;;;;;;3.65;1.90;;;;;;;20.28;63.60;100446.81;10424938;28;20048;-60
2021/07/08 01:03:28;;;;;;;4.75;2.50;;;;;;;20.24;63.58;100440.13;10440654;28;20063;-61
2021/07/08 01:08:30;;;;;;;4.43;2.07;;;;;;;20.19;63.98;100451.47;10433637;28;20147;-62
2021/07/08 01:13:32;;;;;;;3.47;2.23;;;;;;;20.17;64.27;100452.66;10440173;28;20053;-61
2021/07/08 01:18:34;;;;;;;6.07;2.40;;;;;;;20.13;64.50;100453.03;10432177;28;20096;-61
2021/07/08 01:23:35;;;;;;;5.25;3.00;;;;;;;20.09;64.77;100457.13;10437248;28;20041;-61
2021/07/08 01:28:37;;;;;;;5.75;2.65;;;;;;;20.03;65.08;100457.00;10445663;28;20045;-61
2021/07/08 01:33:39;;;;;;;5.65;2.05;;;;;;;20.06;65.48;100452.06;10436848;28;20072;-61
2021/07/08 01:38:41;;;;;;;3.42;2.10;;;;;;;20.01;65.66;100445.53;10436569;28;20135;-61
2021/07/08 01:43:44;;;;;;;3.47;2.20;;;;;;;19.99;65.59;100461.91;10441065;28;20540;-61
2021/07/08 01:48:46;;;;;;;3.85;2.45;;;;;;;19.96;65.74;100454.16;10436528;28;20053;-61
2021/07/08 01:53:48;;;;;;;2.85;2.00;;;;;;;19.95;66.09;100449.78;10439712;28;20048;-62
2021/07/08 01:58:51;;;;;;;3.97;1.90;;;;;;;19.93;66.09;100446.44;10437790;28;20060;-61
2021/07/08 02:03:53;;;;;;;;;;;;;;;19.99;66.05;100447.56;10435444;28;20068;-61
2021/07/08 02:08:55;;;;;;;3.88;2.05;;;;;;;19.80;66.64;100446.19;10424535;28;20439;-60
2021/07/08 02:13:56;;;;;;;2.65;1.92;;;;;;;19.87;66.59;100437.19;10432828;28;20706;-58
2021/07/08 02:18:58;;;;;;;4.38;2.00;;;;;;;19.60;67.67;100430.41;10429429;28;20063;-60
2021/07/08 02:24:00;;;;;;;4.00;2.20;;;;;;;19.74;67.47;100426.97;10424836;28;20057;-62
2021/07/08 02:29:02;;;;;;;3.85;2.17;;;;;;;19.80;67.20;100430.81;10423300;28;20155;-61
2021/07/08 02:34:04;;;;;;;5.57;1.85;;;;;;;19.81;66.66;100427.09;10427510;28;20052;-61
2021/07/08 02:39:06;;;;;;;3.78;2.35;;;;;;;19.48;68.41;100404.84;10432597;28;20056;-60
2021/07/08 02:44:08;;;;;;;6.32;3.40;;;;;;;19.34;68.83;100403.75;10430951;28;20045;-60
2021/07/08 02:49:09;;;;;;;3.67;1.75;;;;;;;18.97;70.47;100406.09;10429729;28;20043;-60
2021/07/08 02:54:11;;;;;;;3.40;2.05;;;;;;;19.29;69.37;100407.00;10418065;28;20068;-61
2021/07/08 02:59:12;;;;;;;3.65;1.48;;;;;;;19.39;68.82;100407.56;10438973;28;20064;-60
2021/07/08 03:04:14;;;;;;;4.85;1.90;;;;;;;19.45;68.56;100416.00;10433882;28;20697;-60
2021/07/08 03:09:16;;;;;;;4.55;1.83;;;;;;;19.50;68.41;100408.19;10428359;28;20045;-60
2021/07/08 03:14:17;;;;;;;3.00;1.50;;;;;;;19.48;68.37;100410.25;10448172;28;20059;-60
2021/07/08 03:19:19;;;;;;;4.32;1.67;;;;;;;19.54;68.47;100407.66;10440931;28;20044;-60
2021/07/08 03:24:20;;;;;;;2.63;2.03;;;;;;;19.50;68.63;100411.75;10448805;28;20052;-60
2021/07/08 03:29:22;;;;;;;3.88;1.55;;;;;;;19.51;68.71;100418.81;10447451;28;20048;-61
2021/07/08 03:34:23;;;;;;;3.15;1.60;;;;;;;19.51;68.72;100423.38;10446313;28;20492;-61
2021/07/08 03:39:25;;;;;;;3.85;1.80;;;;;;;19.48;68.85;100432.66;10446416;28;20052;-60
2021/07/08 03:44:26;;;;;;;5.40;1.98;;;;;;;19.49;69.05;100447.03;10446196;28;20044;-60
2021/07/08 03:49:28;;;;;;;5.85;2.28;;;;;;;19.49;69.09;100445.16;10443169;28;20044;-60
2021/07/08 03:54:29;;;;;;;4.60;1.70;;;;;;;19.50;68.89;100446.00;10441837;28;20045;-60
2021/07/08 03:59:31;;;;;;;3.63;2.13;;;;;;;19.51;68.79;100447.69;10439399;28;20409;-62
2021/07/08 04:04:38;;;;;;;4.45;1.60;;;;;;;19.55;68.96;100443.63;10436113;28;20052;-60
2021/07/08 04:09:39;;;;;;;4.63;2.22;;;;;;;19.58;69.12;100437.88;10436877;28;20064;-60
2021/07/08 04:14:41;;;;;;;3.42;1.88;;;;;;;19.60;69.08;100447.44;10433693;28;20061;-61
2021/07/08 04:19:42;;;;;;;3.13;1.60;;;;;;;19.49;69.36;100447.03;10439712;28;20508;-61
2021/07/08 04:24:44;;;;;;;2.20;1.38;;;;;;;19.41;69.81;100432.56;10443066;28;20040;-60
2021/07/08 04:29:46;;;;;;;3.53;1.23;;;;;;;19.54;70.02;100421.16;10432666;28;20053;-61
2021/07/08 04:34:47;;;;;;;2.45;1.30;;;;;;;19.64;69.27;100418.25;10441714;28;20051;-61
2021/07/08 04:39:49;;;;;;;2.08;0.98;;;;;;;19.70;69.03;100427.50;10450570;28;20380;-60
2021/07/08 04:44:50;;;;;;;4.15;1.58;;;;;;;19.70;69.42;100414.81;10423971;28;20375;-60
2021/07/08 04:49:52;;;;;;;1.83;0.95;;;;;;;19.74;69.60;100421.56;10439093;28;20266;-61
2021/07/08 04:54:54;;;;;;;3.78;1.63;;;;;;;19.75;69.18;100417.81;10440355;28;20045;-65
2021/07/08 04:59:55;;;;;;;2.78;1.15;;;;;;;19.79;68.98;100429.16;10423129;28;20591;-60
2021/07/08 05:04:57;;;;;;;3.00;1.23;;;;;;;19.85;68.96;100430.28;10444711;28;20110;-61
2021/07/08 05:09:58;;;;;;;3.55;1.40;;;;;;;19.87;68.97;100422.84;10428009;28;20068;-60
2021/07/08 05:15:00;;;;;;;2.97;1.23;;;;;;;19.84;68.79;100426.72;10438518;28;20049;-61
2021/07/08 05:20:03;;;;;;;2.85;1.40;;;;;;;19.83;69.02;100426.91;10436968;28;20743;-62
2021/07/08 05:25:07;;;;;;;4.30;1.40;;;;;;;19.80;68.74;100414.59;10447516;28;20040;-61
2021/07/08 05:30:09;;;;;;;;;;;;;;;19.83;68.20;100426.91;10438781;28;20045;-61
2021/07/08 05:35:11;;;;;;;4.10;1.60;;;;;;;19.87;68.04;100442.56;10430063;28;20392;-60
2021/07/08 05:40:13;;;;;;;3.70;2.55;;;;;;;19.92;67.85;100444.75;10425998;28;20048;-61
2021/07/08 05:45:15;;;;;;;3.38;1.73;;;;;;;20.03;67.58;100451.59;10440442;28;20641;-61
2021/07/08 05:50:17;;;;;;;4.65;1.70;;;;;;;20.16;67.33;100467.19;10438723;28;20050;-60
2021/07/08 05:55:19;;;;;;;4.50;1.90;;;;;;;20.22;67.22;100458.34;10436223;28;20060;-60
2021/07/08 06:00:25;;;;;;;3.47;1.75;;;;;;;20.30;66.69;100464.53;10443134;28;20056;-61
2021/07/08 06:05:27;;;;;;;4.20;1.42;;;;;;;20.40;66.60;100467.00;10453168;28;20053;-60
2021/07/08 06:10:28;;;;;;;3.72;1.77;;;;;;;20.53;66.33;100468.22;10448445;28;20071;-60
2021/07/08 06:15:30;;;;;;;3.17;2.22;;;;;;;20.57;66.10;100472.25;10446987;28;20051;-61
2021/07/08 06:20:32;;;;;;;4.00;1.65;;;;;;;20.63;65.77;100480.47;10455507;28;20371;-61
2021/07/08 06:25:34;;;;;;;3.70;1.58;;;;;;;20.75;65.63;100478.19;10447050;28;20091;-62
2021/07/08 06:30:36;;;;;;;13.02;3.75;;;;;;;20.86;65.87;100481.47;10447256;28;20146;-62
2021/07/08 06:35:38;;;;;;;6.72;1.80;;;;;;;20.95;65.45;100488.47;10448370;28;20052;-60
2021/07/08 06:40:39;;;;;;;3.03;1.38;;;;;;;21.04;65.39;100491.91;10447237;28;20056;-60
2021/07/08 06:45:41;;;;;;;36.10;3.25;;;;;;;21.16;65.56;100506.66;10438388;28;20052;-60
2021/07/08 06:50:44;;;;;;;2.72;1.25;;;;;;;21.20;64.93;100524.22;10449972;28;20038;-61
2021/07/08 06:55:47;;;;;;;3.95;2.00;;;;;;;21.33;64.64;100529.81;10457906;28;20044;-62
2021/07/08 07:00:49;;;;;;;2.05;1.60;;;;;;;21.47;64.42;100535.41;10464482;28;20531;-61
2021/07/08 07:05:50;;;;;;;2.58;1.08;;;;;;;21.55;63.64;100543.44;10442620;28;20048;-62
2021/07/08 07:10:52;;;;;;;3.90;1.17;;;;;;;21.62;63.71;100544.38;10442116;28;20048;-61
2021/07/08 07:15:58;;;;;;;4.03;1.42;;;;;;;21.68;63.59;100549.03;10455228;28;20044;-61
2021/07/08 07:21:00;;;;;;;4.03;1.55;;;;;;;21.75;63.60;100534.72;10457314;28;20055;-61
2021/07/08 07:26:02;;;;;;;5.20;1.98;;;;;;;21.82;63.93;100528.34;10457412;28;20486;-61
2021/07/08 07:31:05;;;;;;;4.38;1.70;;;;;;;21.64;64.28;100530.66;10445744;28;20044;-61
2021/07/08 07:36:06;;;;;;;4.90;1.70;;;;;;;21.73;64.74;100542.22;10463453;28;20127;-62
2021/07/08 07:41:08;;;;;;;5.03;1.45;;;;;;;21.82;64.48;100538.38;10462560;28;20060;-62
2021/07/08 07:46:10;;;;;;;3.55;2.08;;;;;;;22.03;63.97;100534.84;10445854;28;20062;-62
2021/07/08 07:51:12;;;;;;;4.15;2.10;;;;;;;22.07;63.76;100528.84;10455697;28;20138;-62
2021/07/08 07:56:16;;;;;;;26.88;6.40;;;;;;;22.21;63.59;100520.84;10458078;28;21077;-62
2021/07/08 08:01:17;;;;;;;5.43;3.03;;;;;;;22.26;63.29;100512.97;10456708;28;20048;-62
2021/07/08 08:11:39;;;;;;;3.78;2.13;;;;;;;22.27;63.36;100509.22;10452493;28;20529;-61
2021/07/08 08:16:41;;;;;;;4.13;1.33;;;;;;;22.24;63.94;100515.88;10457755;28;20059;-62
2021/07/08 08:21:43;;;;;;;3.80;1.30;;;;;;;22.34;63.93;100509.31;10439624;28;20079;-61
2021/07/08 08:26:50;;;;;;;4.28;1.90;;;;;;;22.57;63.25;100518.06;10458645;28;20289;-61
2021/07/08 08:31:52;;;;;;;3.72;1.00;;;;;;;22.64;62.67;100514.56;10438847;28;20101;-61
2021/07/08 08:36:54;;;;;;;2.88;1.55;;;;;;;22.60;63.29;100542.09;10454649;28;20139;-61
2021/07/08 08:41:56;;;;;;;15.52;2.97;;;;;;;22.77;63.18;100542.66;10464347;28;20515;-62
2021/07/08 08:46:57;;;;;;;2.17;1.10;;;;;;;23.36;61.86;100526.13;10427074;28;20163;-62
2021/07/08 08:51:59;;;;;;;2.90;1.38;;;;;;;23.78;61.33;100532.38;10439548;28;20086;-62
2021/07/08 08:57:03;;;;;;;4.22;2.20;;;;;;;24.11;60.19;100531.66;10459409;28;20048;-62
2021/07/08 09:02:12;;;;;;;3.88;1.17;;;;;;;24.32;59.16;100515.19;10455660;28;20064;-62
2021/07/08 09:07:20;;;;;;;3.63;1.10;;;;;;;24.61;58.60;100520.47;10458974;28;20040;-62
2021/07/08 09:12:24;;;;;;;6.85;1.80;;;;;;;24.85;57.08;100519.81;10464679;28;20117;-62
2021/07/08 09:17:26;;;;;;;3.55;2.22;;;;;;;25.19;56.64;100517.00;10461875;28;20059;-62
2021/07/08 09:22:30;;;;;;;4.72;1.35;;;;;;;25.40;55.25;100515.91;10456313;28;20056;-62
2021/07/08 09:27:32;;;;;;;1.60;0.85;;;;;;;25.56;53.75;100517.34;10443488;28;20057;-62
2021/07/08 09:32:35;;;;;;;1.83;0.77;;;;;;;25.85;53.52;100510.50;10464615;28;20055;-62
2021/07/08 09:37:36;;;;;;;;;;;;;;;26.12;51.99;100502.16;10459432;28;20048;-62
2021/07/08 09:42:45;;;;;;;3.78;1.05;;;;;;;26.18;52.36;100506.75;10452055;22;19943;-63
2021/07/08 09:47:47;;;;;;;2.22;1.05;;;;;;;26.32;51.24;100498.44;10416277;28;20048;-61
2021/07/08 09:53:10;;;;;;;9.63;1.30;;;;;;;26.52;50.48;100481.94;10375356;28;20468;-60
2021/07/08 09:58:12;;;;;;;3.67;1.00;;;;;;;26.84;49.13;100493.59;10378316;28;20048;-61
2021/07/08 10:03:14;;;;;;;3.95;0.85;;;;;;;26.92;48.58;100487.03;10378335;28;20052;-61
2021/07/08 10:08:16;;;;;;;1.92;0.55;;;;;;;27.11;48.55;100494.19;10373833;28;20797;-61
2021/07/08 10:13:18;;;;;;;3.08;1.08;;;;;;;27.43;47.87;100496.78;10375782;28;20053;-61
2021/07/08 10:18:21;;;;;;;2.55;0.40;;;;;;;27.61;47.72;100485.00;10377822;28;20560;-66
2021/07/08 10:23:25;;;;;;;2.30;0.93;;;;;;;27.92;46.98;100484.97;10379270;28;20057;-64
2021/07/08 10:28:33;;;;;;;1.27;0.50;;;;;;;28.35;43.54;100483.94;10367570;28;20570;-65
2021/07/08 10:33:35;;;;;;;2.90;0.70;;;;;;;28.21;44.28;100484.13;10382202;28;20130;-64
2021/07/08 10:38:40;;;;;;;2.73;0.53;;;;;;;28.62;42.62;100478.84;10372834;28;20064;-66
2021/07/08 10:43:43;;;;;;;1.63;0.55;;;;;;;29.26;41.45;100473.44;10379322;28;20673;-67
2021/07/08 10:49:13;;;;;;;1.83;0.43;;;;;;;29.37;38.56;100479.16;10379529;28;20477;-66
2021/07/08 10:54:28;;;;;;;0.60;0.30;;;;;;;29.19;40.36;100466.41;10377333;28;20053;-64
2021/07/08 10:59:43;;;;;;;3.72;0.43;;;;;;;29.11;39.00;100470.38;10378221;28;20088;-65
2021/07/08 11:04:55;;;;;;;0.82;0.40;;;;;;;28.69;39.59;100463.16;10372015;28;20188;-64
2021/07/08 11:10:02;;;;;;;3.03;1.13;;;;;;;28.35;41.36;100456.56;10377417;28;20053;-65
2021/07/08 11:15:05;;;;;;;2.00;0.60;;;;;;;28.29;40.79;100457.50;10378626;28;20494;-67
2021/07/08 11:20:32;;;;;;;2.42;0.40;;;;;;;28.83;41.40;100440.97;10375593;28;20050;-64
2021/07/08 11:25:41;;;;;;;1.02;0.40;;;;;;;28.94;39.95;100434.63;10381537;28;20378;-65
2021/07/08 11:30:56;;;;;;;4.90;1.30;;;;;;;28.34;41.62;100444.75;10368856;28;20053;-66
2021/07/08 11:36:02;;;;;;;1.40;0.50;;;;;;;28.56;40.24;100450.47;10384984;28;20052;-65
2021/07/08 11:41:06;;;;;;;2.03;0.90;;;;;;;28.71;39.17;100430.03;10374682;28;20057;-64
2021/07/08 11:46:17;;;;;;;2.47;0.60;;;;;;;29.25;37.90;100433.41;10380881;28;20123;-65
2021/07/08 11:51:19;;;;;;;3.17;1.00;;;;;;;29.08;38.25;100433.31;10377849;28;20394;-65
2021/07/08 11:56:26;;;;;;;0.80;0.50;;;;;;;28.74;39.35;100437.78;10374834;28;20425;-66
2021/07/08 12:01:27;;;;;;;0.90;0.68;;;;;;;28.24;39.81;100436.31;10379759;28;20083;-68
2021/07/08 12:06:30;;;;;;;35.70;4.83;;;;;;;28.35;41.08;100423.72;10382571;28;20045;-65
2021/07/08 12:11:43;;;;;;;1.63;0.50;;;;;;;28.38;40.37;100415.84;10381177;28;20402;-65
2021/07/08 12:16:47;;;;;;;2.10;0.80;;;;;;;28.06;39.94;100407.16;10379748;28;20049;-64
2021/07/08 12:21:51;;;;;;;2.28;0.90;;;;;;;27.52;41.31;100413.41;10380925;28;20503;-64
2021/07/08 12:26:56;;;;;;;1.73;0.52;;;;;;;27.13;42.49;100418.28;10380787;28;20049;-65
2021/07/08 12:32:13;;;;;;;0.90;0.60;;;;;;;27.04;41.96;100406.00;10377656;28;20176;-66
2021/07/08 12:37:23;;;;;;;0.90;0.75;;;;;;;26.72;43.80;100405.31;10385587;28;20049;-66
2021/07/08 12:42:31;;;;;;;2.60;0.80;;;;;;;26.35;45.95;100417.00;10370721;28;20061;-66
2021/07/08 12:47:34;;;;;;;1.67;0.60;;;;;;;26.40;46.75;100408.97;10383081;28;20549;-65
2021/07/08 12:52:41;;;;;;;0.65;0.63;;;;;;;26.54;47.31;100411.56;10378079;28;20155;-64
2021/07/08 12:57:42;;;;;;;2.78;0.90;;;;;;;26.79;46.38;100406.09;10371653;28;20049;-66
2021/07/08 13:02:52;;;;;;;1.10;0.68;;;;;;;26.80;46.34;100391.38;10371390;28;20053;-65
2021/07/08 13:07:53;;;;;;;1.33;1.13;;;;;;;26.65;45.74;100394.47;10372532;28;20514;-65
2021/07/08 13:12:59;;;;;;;1.45;0.70;;;;;;;26.77;45.33;100394.56;10372295;28;20056;-65
2021/07/08 13:18:05;;;;;;;1.55;1.00;;;;;;;26.56;45.32;100396.66;10367035;28;20132;-65
2021/07/08 13:23:20;;;;;;;1.83;0.88;;;;;;;26.26;46.02;100399.25;10376955;28;20063;-65
2021/07/08 13:28:32;;;;;;;0.95;0.70;;;;;;;25.99;46.67;100402.19;10371717;28;20045;-65
2021/07/08 13:33:33;;;;;;;2.43;0.93;;;;;;;25.97;47.03;100403.44;10371575;28;20519;-65
2021/07/08 13:38:35;;;;;;;1.23;0.70;;;;;;;25.48;46.42;100394.97;10357843;28;20046;-67
2021/07/08 13:43:43;;;;;;;1.58;1.15;;;;;;;25.26;47.39;100403.41;10371052;28;20067;-65
2021/07/08 13:48:52;;;;;;;0.90;0.50;;;;;;;25.19;47.74;100398.03;10374422;28;20482;-64
2021/07/08 13:53:53;;;;;;;3.28;0.82;;;;;;;25.19;48.33;100406.19;10371992;28;20052;-65
2021/07/08 13:58:55;;;;;;;1.55;0.70;;;;;;;25.05;49.07;100407.28;10376837;28;20056;-65
2021/07/08 14:03:56;;;;;;;1.95;0.60;;;;;;;24.74;49.49;100410.72;10373898;28;20048;-64
2021/07/08 14:08:59;;;;;;;1.52;0.60;;;;;;;24.64;50.39;100427.50;10372307;28;20049;-64
2021/07/08 14:14:04;;;;;;;1.45;0.70;;;;;;;24.39;50.92;100438.19;10375119;28;20052;-64
2021/07/08 14:19:06;;;;;;;1.65;1.00;;;;;;;23.95;55.75;100441.28;10361070;28;20054;-64
2021/07/08 14:24:09;;;;;;;2.90;1.42;;;;;;;23.99;58.32;100453.44;10366010;28;20131;-65
2021/07/08 14:29:11;;;;;;;4.75;2.50;;;;;;;23.67;64.38;100440.59;10373893;28;20045;-62
2021/07/08 14:34:12;;;;;;;4.28;1.90;;;;;;;23.58;67.37;100423.63;10373820;28;20045;-60
2021/07/08 14:39:15;;;;;;;1.98;1.77;;;;;;;23.27;65.08;100414.97;10377409;28;20139;-62
2021/07/08 14:44:32;;;;;;;2.42;2.17;;;;;;;23.55;68.41;100419.44;10376948;28;20064;-60
2021/07/08 14:49:33;;;;;;;5.03;2.58;;;;;;;23.72;69.17;100425.34;10375622;28;20044;-62
2021/07/08 14:54:35;;;;;;;2.83;2.33;;;;;;;23.86;69.43;100428.94;10380637;28;20099;-60
2021/07/08 14:59:36;;;;;;;4.00;2.25;;;;;;;23.99;68.46;100430.88;10376084;28;20541;-60
2021/07/08 15:04:38;;;;;;;3.72;2.70;;;;;;;24.07;70.28;100432.53;10376215;28;20057;-65
2021/07/08 15:09:40;;;;;;;2.00;1.70;;;;;;;24.12;68.69;100422.69;10373417;28;20056;-67
2021/07/08 15:14:42;;;;;;;2.80;1.05;;;;;;;24.18;65.83;100426.47;10381188;28;20061;-65
2021/07/08 15:19:43;;;;;;;3.60;1.00;;;;;;;23.83;65.32;100419.28;10376723;28;20057;-66
2021/07/08 15:24:45;;;;;;;3.33;0.60;;;;;;;23.27;66.42;100428.56;10379140;28;20136;-64
2021/07/08 15:29:47;;;;;;;1.90;0.45;;;;;;;23.14;67.50;100416.81;10386684;28;20046;-64
2021/07/08 15:34:56;;;;;;;1.10;0.55;;;;;;;22.95;66.62;100422.75;10378077;28;20053;-64
2021/07/08 15:39:57;;;;;;;2.53;0.50;;;;;;;22.80;67.42;100440.19;10377451;28;21530;-67
2021/07/08 15:45:00;;;;;;;;;;;;;;;22.81;68.68;100433.72;10417676;22;20067;-63
2021/07/08 15:50:04;;;;;;;1.95;0.60;;;;;;;22.36;65.81;100442.19;10440786;28;20431;-62
2021/07/08 15:55:06;;;;;;;1.67;0.68;;;;;;;21.72;67.09;100430.28;10423039;28;20540;-63
2021/07/08 16:00:10;;;;;;;2.33;1.25;;;;;;;21.78;71.16;100439.53;10411247;28;20059;-61
2021/07/08 16:05:14;;;;;;;1.55;0.95;;;;;;;21.92;69.06;100416.09;10260085;28;20060;-66
2021/07/08 16:10:21;;;;;;;2.65;1.00;;;;;;;22.00;68.80;100443.09;10243647;28;20061;-61
2021/07/08 16:15:45;;;;;;;2.25;1.00;;;;;;;22.01;67.26;100455.63;10267735;28;20045;-62
2021/07/08 16:21:03;;;;;;;5.63;2.90;;;;;;;21.91;66.71;100471.34;10226271;28;20194;-63
2021/07/08 16:26:10;;;;;;;1.63;1.00;;;;;;;21.79;67.98;100479.13;10299786;28;21685;-62
2021/07/08 16:31:18;;;;;;;3.10;0.73;;;;;;;21.70;66.26;100481.13;10291322;28;20100;-62
2021/07/08 16:36:30;;;;;;;1.83;0.60;;;;;;;21.63;66.67;100481.06;10236317;28;21549;-66
2021/07/08 16:41:45;;;;;;;1.40;0.90;;;;;;;21.53;68.31;100497.59;10238339;28;20140;-63
2021/07/08 16:46:51;;;;;;;2.28;1.02;;;;;;;21.39;67.80;100495.72;10244549;28;20052;-61
2021/07/08 16:52:01;;;;;;;1.98;1.08;;;;;;;21.34;68.48;100481.91;10264442;28;20792;-61
2021/07/08 16:57:04;;;;;;;1.67;1.00;;;;;;;21.26;69.58;100490.13;10304905;28;20498;-63
2021/07/08 17:02:22;;;;;;;4.72;1.20;;;;;;;20.58;72.70;100499.13;10299437;28;20068;-64
2021/07/08 17:07:33;;;;;;;3.40;0.90;;;;;;;20.67;72.23;100480.94;10273358;28;20752;-62
2021/07/08 17:12:53;;;;;;;2.40;1.13;;;;;;;20.90;70.62;100482.78;10281327;28;20049;-62
2021/07/08 17:17:55;;;;;;;3.00;0.90;;;;;;;20.68;71.70;100477.22;10341415;28;20095;-62
2021/07/08 17:22:57;;;;;;;2.30;1.20;;;;;;;20.79;71.45;100473.22;10413704;28;20505;-62
2021/07/08 17:27:59;;;;;;;2.35;1.30;;;;;;;20.99;70.27;100470.84;10394226;28;20748;-62
2021/07/08 17:33:17;;;;;;;3.45;1.23;;;;;;;20.98;70.13;100478.09;10405151;28;20056;-61
2021/07/08 17:38:19;;;;;;;1.33;1.23;;;;;;;20.96;70.43;100484.75;10411052;28;20048;-62
2021/07/08 17:43:20;;;;;;;2.20;1.13;;;;;;;20.88;71.16;100482.09;10407650;28;20045;-62
2021/07/08 17:48:22;;;;;;;1.85;1.35;;;;;;;20.93;70.77;100487.81;10407201;28;20064;-63
2021/07/08 17:53:24;;;;;;;2.08;1.10;;;;;;;20.91;70.74;100484.44;10392028;28;20060;-63
2021/07/08 17:58:25;;;;;;;2.92;1.00;;;;;;;20.89;69.79;100471.09;10393027;28;20456;-62
2021/07/08 18:03:27;;;;;;;1.73;1.10;;;;;;;20.87;69.75;100486.69;10394743;28;20053;-64
2021/07/08 18:08:29;;;;;;;1.33;0.80;;;;;;;20.92;69.93;100492.38;10393791;28;20052;-62
2021/07/08 18:13:42;;;;;;;2.38;0.90;;;;;;;20.86;70.22;100492.28;10390645;28;20056;-64
2021/07/08 18:18:44;;;;;;;1.92;1.13;;;;;;;20.85;69.09;100494.13;10409978;28;20497;-63
2021/07/08 18:23:45;;;;;;;3.55;1.10;;;;;;;20.83;69.86;100494.31;10393698;28;20177;-62
2021/07/08 18:28:47;;;;;;;1.95;0.75;;;;;;;20.73;69.26;100480.25;10387021;28;20152;-62
2021/07/08 18:33:48;;;;;;;1.50;0.80;;;;;;;20.70;69.61;100479.75;10395749;28;20061;-61
2021/07/08 18:38:50;;;;;;;1.95;1.00;;;;;;;20.65;69.64;100477.56;10413734;28;20146;-61
2021/07/08 18:44:06;;;;;;;2.58;1.02;;;;;;;20.62;70.16;100495.00;10406537;28;20053;-61
2021/07/08 18:49:08;;;;;;;2.58;2.03;;;;;;;20.54;70.71;100495.09;10410146;28;20052;-61
2021/07/08 18:54:10;;;;;;;1.75;0.98;;;;;;;20.37;70.92;100499.81;10410058;28;20482;-61
2021/07/08 18:59:12;;;;;;;3.10;1.25;;;;;;;20.37;69.55;100491.69;10391928;28;20563;-61
2021/07/08 19:04:13;;;;;;;3.65;1.20;;;;;;;20.36;70.29;100487.31;10413012;28;20048;-64
2021/07/08 19:09:15;;;;;;;1.48;1.08;;;;;;;20.34;70.03;100481.22;10411550;28;20048;-61
2021/07/08 19:14:16;;;;;;;3.67;0.88;;;;;;;20.33;70.44;100479.56;10411435;28;20048;-61
2021/07/08 19:19:30;;;;;;;2.17;0.82;;;;;;;20.30;69.98;100486.16;10409005;28;20509;-61
2021/07/08 19:24:32;;;;;;;12.10;4.88;;;;;;;20.29;70.00;100494.44;10392348;28;20048;-62
2021/07/08 19:29:36;;;;;;;4.20;1.30;;;;;;;20.04;69.82;100477.59;10413411;28;20064;-62
2021/07/08 19:34:40;;;;;;;8.02;3.13;;;;;;;20.05;70.72;100490.91;10393263;28;20068;-62
2021/07/08 19:39:43;;;;;;;2.30;1.20;;;;;;;20.05;70.75;100487.38;10407209;28;20053;-61
2021/07/08 19:44:45;;;;;;;1.88;0.85;;;;;;;20.03;69.85;100490.25;10407351;28;20058;-61
2021/07/08 19:49:49;;;;;;;2.90;1.38;;;;;;;19.77;72.02;100496.84;10387994;28;20060;-61
2021/07/08 19:54:51;;;;;;;2.25;1.10;;;;;;;19.90;71.11;100507.03;10406666;28;20041;-62
2021/07/08 19:59:53;;;;;;;2.88;1.10;;;;;;;19.70;72.01;100508.50;10417060;28;20056;-60
2021/07/08 20:04:54;;;;;;;3.92;1.20;;;;;;;19.74;71.06;100517.91;10419423;28;20393;-62
2021/07/08 20:09:57;;;;;;;3.05;1.48;;;;;;;19.70;72.61;100522.00;10416618;28;20146;-62
2021/07/08 20:14:59;;;;;;;2.00;0.90;;;;;;;19.75;72.62;100523.13;10421251;28;20059;-63
2021/07/08 20:20:00;;;;;;;3.30;1.42;;;;;;;19.86;73.12;100526.50;10421347;28;20044;-63
2021/07/08 20:25:02;;;;;;;2.60;1.20;;;;;;;19.89;72.16;100539.63;10407357;28;21218;-61
2021/07/08 20:30:05;;;;;;;8.48;2.25;;;;;;;19.84;71.81;100539.34;10410424;28;20041;-62
2021/07/08 20:35:10;;;;;;;2.63;1.60;;;;;;;19.88;71.80;100546.09;10406670;28;20064;-63
2021/07/08 20:40:12;;;;;;;3.60;2.00;;;;;;;19.94;72.49;100545.38;10414373;28;20123;-63
2021/07/08 20:45:14;;;;;;;3.90;1.85;;;;;;;19.90;72.47;100541.34;10410225;28;20056;-62
2021/07/08 20:50:18;;;;;;;2.70;2.10;;;;;;;19.75;72.04;100533.94;10415501;28;20056;-63
2021/07/08 20:55:20;;;;;;;2.42;1.85;;;;;;;19.88;72.89;100540.69;10405342;28;20141;-61
2021/07/08 21:00:21;;;;;;;2.28;1.20;;;;;;;19.91;73.79;100541.16;10402543;28;20045;-62
2021/07/08 21:05:23;;;;;;;2.92;1.40;;;;;;;19.88;72.90;100543.38;10400860;28;20057;-62
2021/07/08 21:10:25;;;;;;;2.00;1.35;;;;;;;19.88;73.70;100546.09;10418852;28;20056;-61
2021/07/08 21:15:28;;;;;;;3.05;1.50;;;;;;;19.85;72.95;100525.66;10407045;28;20491;-62
2021/07/08 21:20:29;;;;;;;2.80;1.50;;;;;;;19.86;73.19;100511.16;10405059;28;20045;-62
2021/07/08 21:25:31;;;;;;;4.18;1.70;;;;;;;19.88;72.68;100508.28;10416620;28;20049;-61
2021/07/08 21:30:33;;;;;;;3.97;2.22;;;;;;;19.81;72.11;100507.28;10408984;28;20184;-61
2021/07/08 21:35:35;;;;;;;3.72;1.80;;;;;;;19.72;73.14;100499.19;10397511;28;20041;-61
2021/07/08 21:40:37;;;;;;;4.55;1.73;;;;;;;19.35;73.05;100495.34;10416537;28;20040;-62
2021/07/08 21:45:58;;;;;;;2.75;1.60;;;;;;;19.43;74.63;100494.47;10400333;28;20056;-62
2021/07/08 21:51:00;;;;;;;3.75;1.75;;;;;;;19.55;73.92;100494.91;10410267;28;20176;-61
2021/07/08 21:56:19;;;;;;;7.38;2.65;;;;;;;19.60;74.34;100500.63;10416966;28;20056;-62
2021/07/08 22:01:22;;;;;;;3.78;2.22;;;;;;;19.48;73.65;100508.25;10409102;28;20060;-62
2021/07/08 22:06:25;;;;;;;3.30;2.03;;;;;;;19.48;74.50;100496.63;10406086;28;20148;-61
2021/07/08 22:11:27;;;;;;;3.37;1.70;;;;;;;19.58;74.97;100503.50;10409700;28;20496;-62
2021/07/08 22:16:29;;;;;;;4.22;2.17;;;;;;;19.63;74.04;100508.34;10412132;28;20041;-62
2021/07/08 22:21:33;;;;;;;3.22;1.70;;;;;;;19.65;73.67;100522.53;10405229;28;20048;-62
2021/07/08 22:26:35;;;;;;;6.75;1.90;;;;;;;19.67;73.74;100523.19;10417340;28;20473;-60
2021/07/08 22:31:36;;;;;;;5.32;2.13;;;;;;;19.72;73.42;100534.28;10385563;28;20061;-60
2021/07/08 22:36:53;;;;;;;3.30;1.65;;;;;;;19.72;74.77;100528.91;10408249;28;20040;-61
2021/07/08 22:41:55;;;;;;;3.97;1.98;;;;;;;19.71;73.18;100532.63;10412217;28;20045;-60
2021/07/08 22:46:56;;;;;;;2.25;1.92;;;;;;;19.69;73.63;100536.53;10432963;22;20049;-57
2021/07/08 22:51:58;;;;;;;5.38;2.20;;;;;;;19.71;73.81;100529.94;10388275;28;20486;-58
2021/07/08 22:57:00;;;;;;;4.05;1.67;;;;;;;19.59;73.67;100515.97;10376622;28;20479;-56
2021/07/08 23:02:01;;;;;;;2.30;1.55;;;;;;;19.21;73.83;100496.06;10372458;28;20045;-55
2021/07/08 23:07:03;;;;;;;5.40;1.60;;;;;;;19.32;74.81;100511.88;10371157;28;20638;-55
2021/07/08 23:12:05;;;;;;;2.55;1.40;;;;;;;19.48;74.29;100518.22;10372045;28;20054;-57
2021/07/08 23:17:07;;;;;;;3.53;1.80;;;;;;;19.52;73.83;100522.25;10378423;28;20048;-58
2021/07/08 23:22:08;;;;;;;4.90;1.83;;;;;;;19.56;73.98;100523.56;10370061;28;20054;-57